sensor_id;sensor_type;location;lat;lon;timestamp;pressure;altitude;pressure_sealevel;temperature;humidity
19526;BME280;9907;42.676;26.348;2024-03-17T00:00:45;99298.97;;;7.73;100.00
19526;BME280;9907;42.676;26.348;2024-03-17T00:03:11;99296.31;;;7.73;100.00
19526;BME280;9907;42.676;26.348;2024-03-17T00:05:37;99290.31;;;7.82;100.00
19526;BME280;9907;42.676;26.348;2024-03-17T00:08:04;99296.19;;;7.74;100.00
19526;BME280;9907;42.676;26.348;2024-03-17T00:10:31;99297.63;;;7.67;100.00
19526;BME280;9907;42.676;26.348;2024-03-17T00:13:01;99290.50;;;7.68;100.00
19526;BME280;9907;42.676;26.348;2024-03-17T00:15:26;99292.16;;;7.69;100.00
19526;BME280;9907;42.676;26.348;2024-03-17T00:17:52;99295.19;;;7.64;100.00
19526;BME280;9907;42.676;26.348;2024-03-17T00:20:18;99294.56;;;7.61;100.00
19526;BME280;9907;42.676;26.348;2024-03-17T00:22:49;99286.69;;;7.59;100.00
19526;BME280;9907;42.676;26.348;2024-03-17T00:25:15;99292.34;;;7.55;100.00
19526;BME280;9907;42.676;26.348;2024-03-17T00:27:41;99290.47;;;7.44;100.00
19526;BME280;9907;42.676;26.348;2024-03-17T00:30:09;99288.06;;;7.28;100.00
19526;BME280;9907;42.676;26.348;2024-03-17T00:32:38;99292.09;;;7.34;100.00
19526;BME280;9907;42.676;26.348;2024-03-17T00:35:04;99278.28;;;7.29;100.00
19526;BME280;9907;42.676;26.348;2024-03-17T00:37:30;99285.91;;;7.46;100.00
19526;BME280;9907;42.676;26.348;2024-03-17T00:39:56;99294.06;;;7.43;100.00
19526;BME280;9907;42.676;26.348;2024-03-17T00:42:23;99296.72;;;7.43;100.00
19526;BME280;9907;42.676;26.348;2024-03-17T00:44:48;99296.72;;;7.43;100.00
19526;BME280;9907;42.676;26.348;2024-03-17T00:47:14;99281.25;;;7.37;100.00
19526;BME280;9907;42.676;26.348;2024-03-17T00:49:41;99283.38;;;7.32;100.00
19526;BME280;9907;42.676;26.348;2024-03-17T00:52:06;99285.09;;;7.33;100.00
19526;BME280;9907;42.676;26.348;2024-03-17T00:54:33;99284.00;;;7.35;100.00
19526;BME280;9907;42.676;26.348;2024-03-17T00:57:00;99289.31;;;7.35;100.00
19526;BME280;9907;42.676;26.348;2024-03-17T00:59:25;99283.69;;;7.40;100.00
19526;BME280;9907;42.676;26.348;2024-03-17T01:01:53;99282.94;;;7.38;100.00
19526;BME280;9907;42.676;26.348;2024-03-17T01:07:28;99275.78;;;7.15;100.00
19526;BME280;9907;42.676;26.348;2024-03-17T01:09:56;99271.31;;;7.15;100.00
19526;BME280;9907;42.676;26.348;2024-03-17T01:12:27;99269.91;;;7.22;100.00
19526;BME280;9907;42.676;26.348;2024-03-17T01:14:53;99265.47;;;7.23;100.00
19526;BME280;9907;42.676;26.348;2024-03-17T01:17:19;99268.13;;;7.23;100.00
19526;BME280;9907;42.676;26.348;2024-03-17T01:19:46;99264.94;;;7.18;100.00
19526;BME280;9907;42.676;26.348;2024-03-17T01:22:11;99260.25;;;7.21;100.00
19526;BME280;9907;42.676;26.348;2024-03-17T01:24:36;99258.91;;;7.16;100.00
19526;BME280;9907;42.676;26.348;2024-03-17T01:27:05;99250.16;;;7.14;100.00
19526;BME280;9907;42.676;26.348;2024-03-17T01:29:31;99255.63;;;7.12;100.00
19526;BME280;9907;42.676;26.348;2024-03-17T01:31:56;99259.66;;;7.05;100.00
19526;BME280;9907;42.676;26.348;2024-03-17T01:34:22;99260.28;;;7.09;100.00
19526;BME280;9907;42.676;26.348;2024-03-17T01:36:48;99263.09;;;6.95;100.00
19526;BME280;9907;42.676;26.348;2024-03-17T01:39:13;99259.13;;;7.00;100.00
19526;BME280;9907;42.676;26.348;2024-03-17T01:41:41;99255.84;;;6.97;100.00
19526;BME280;9907;42.676;26.348;2024-03-17T01:44:07;99256.06;;;6.94;100.00
19526;BME280;9907;42.676;26.348;2024-03-17T01:46:34;99258.72;;;6.94;100.00
19526;BME280;9907;42.676;26.348;2024-03-17T01:48:59;99254.69;;;6.88;100.00
19526;BME280;9907;42.676;26.348;2024-03-17T01:51:25;99245.88;;;6.88;100.00
19526;BME280;9907;42.676;26.348;2024-03-17T01:53:51;99255.13;;;6.82;100.00
19526;BME280;9907;42.676;26.348;2024-03-17T01:56:17;99249.41;;;6.75;100.00
19526;BME280;9907;42.676;26.348;2024-03-17T01:58:44;99255.13;;;6.82;100.00
19526;BME280;9907;42.676;26.348;2024-03-17T02:01:11;99256.72;;;6.84;100.00
19526;BME280;9907;42.676;26.348;2024-03-17T02:03:40;99245.06;;;6.87;100.00
19526;BME280;9907;42.676;26.348;2024-03-17T02:06:06;99246.63;;;6.90;100.00
19526;BME280;9907;42.676;26.348;2024-03-17T02:08:52;99243.34;;;6.86;100.00
19526;BME280;9907;42.676;26.348;2024-03-17T02:11:31;99246.00;;;6.73;100.00
19526;BME280;9907;42.676;26.348;2024-03-17T02:13:58;99246.00;;;6.73;100.00
19526;BME280;9907;42.676;26.348;2024-03-17T02:16:24;99240.06;;;6.70;100.00
19526;BME280;9907;42.676;26.348;2024-03-17T02:18:59;99237.63;;;6.67;100.00
19526;BME280;9907;42.676;26.348;2024-03-17T02:21:27;99235.38;;;6.73;100.00
19526;BME280;9907;42.676;26.348;2024-03-17T02:23:53;99244.34;;;6.72;100.00
19526;BME280;9907;42.676;26.348;2024-03-17T02:26:19;99245.16;;;6.73;100.00
19526;BME280;9907;42.676;26.348;2024-03-17T02:28:47;99237.84;;;6.64;100.00
19526;BME280;9907;42.676;26.348;2024-03-17T02:31:15;99241.13;;;6.55;100.00
19526;BME280;9907;42.676;26.348;2024-03-17T02:33:42;99249.22;;;6.41;100.00
19526;BME280;9907;42.676;26.348;2024-03-17T02:36:10;99242.66;;;6.46;100.00
19526;BME280;9907;42.676;26.348;2024-03-17T02:38:40;99241.88;;;6.44;100.00
19526;BME280;9907;42.676;26.348;2024-03-17T02:41:25;99245.06;;;6.36;100.00
19526;BME280;9907;42.676;26.348;2024-03-17T02:43:51;99239.34;;;6.30;100.00
19526;BME280;9907;42.676;26.348;2024-03-17T02:46:18;99238.91;;;6.11;100.00
19526;BME280;9907;42.676;26.348;2024-03-17T02:48:52;99235.75;;;6.06;100.00
19526;BME280;9907;42.676;26.348;2024-03-17T02:51:22;99230.94;;;6.11;100.00
19526;BME280;9907;42.676;26.348;2024-03-17T02:53:50;99239.34;;;6.05;100.00
19526;BME280;9907;42.676;26.348;2024-03-17T02:56:17;99229.16;;;6.11;100.00
19526;BME280;9907;42.676;26.348;2024-03-17T02:58:44;99235.75;;;6.31;100.00
19526;BME280;9907;42.676;26.348;2024-03-17T03:01:11;99238.72;;;6.39;100.00
19526;BME280;9907;42.676;26.348;2024-03-17T03:03:37;99244.22;;;6.36;100.00
19526;BME280;9907;42.676;26.348;2024-03-17T03:06:03;99235.63;;;6.45;100.00
19526;BME280;9907;42.676;26.348;2024-03-17T03:08:48;99237.84;;;6.51;100.00
19526;BME280;9907;42.676;26.348;2024-03-17T03:11:17;99245.09;;;6.49;100.00
19526;BME280;9907;42.676;26.348;2024-03-17T03:13:43;99243.81;;;6.42;100.00
19526;BME280;9907;42.676;26.348;2024-03-17T03:16:10;99247.00;;;6.34;100.00
19526;BME280;9907;42.676;26.348;2024-03-17T03:18:37;99242.72;;;6.32;100.00
19526;BME280;9907;42.676;26.348;2024-03-17T03:21:07;99243.59;;;6.32;100.00
19526;BME280;9907;42.676;26.348;2024-03-17T03:23:34;99246.06;;;6.35;100.00
19526;BME280;9907;42.676;26.348;2024-03-17T03:26:01;99239.34;;;6.30;100.00
19526;BME280;9907;42.676;26.348;2024-03-17T03:28:29;99248.88;;;6.32;100.00
19526;BME280;9907;42.676;26.348;2024-03-17T03:30:55;99248.78;;;6.34;100.00
19526;BME280;9907;42.676;26.348;2024-03-17T03:33:21;99241.16;;;6.29;100.00
19526;BME280;9907;42.676;26.348;2024-03-17T03:35:48;99248.78;;;6.34;100.00
19526;BME280;9907;42.676;26.348;2024-03-17T03:38:17;99244.63;;;6.17;100.00
19526;BME280;9907;42.676;26.348;2024-03-17T03:40:45;99254.59;;;6.14;100.00
19526;BME280;9907;42.676;26.348;2024-03-17T03:43:13;99254.41;;;6.17;100.00
19526;BME280;9907;42.676;26.348;2024-03-17T03:45:39;99258.75;;;6.05;100.00
19526;BME280;9907;42.676;26.348;2024-03-17T03:48:08;99257.13;;;6.03;100.00
19526;BME280;9907;42.676;26.348;2024-03-17T03:50:34;99258.75;;;6.05;100.00
19526;BME280;9907;42.676;26.348;2024-03-17T03:53:04;99267.75;;;6.03;100.00
19526;BME280;9907;42.676;26.348;2024-03-17T03:55:34;99265.59;;;5.95;100.00
19526;BME280;9907;42.676;26.348;2024-03-17T03:57:59;99262.88;;;5.97;100.00
19526;BME280;9907;42.676;26.348;2024-03-17T04:00:25;99271.88;;;6.07;100.00
19526;BME280;9907;42.676;26.348;2024-03-17T04:02:54;99272.75;;;5.95;100.00
19526;BME280;9907;42.676;26.348;2024-03-17T04:05:20;99271.03;;;5.94;100.00
19526;BME280;9907;42.676;26.348;2024-03-17T04:07:47;99277.06;;;5.96;100.00
19526;BME280;9907;42.676;26.348;2024-03-17T04:10:14;99268.78;;;5.87;100.00
19526;BME280;9907;42.676;26.348;2024-03-17T04:12:40;99285.03;;;5.96;100.00
19526;BME280;9907;42.676;26.348;2024-03-17T04:15:05;99278.34;;;5.90;100.00
19526;BME280;9907;42.676;26.348;2024-03-17T04:17:32;99282.56;;;5.93;100.00
19526;BME280;9907;42.676;26.348;2024-03-17T04:19:59;99285.13;;;5.94;100.00
19526;BME280;9907;42.676;26.348;2024-03-17T04:22:24;99288.31;;;5.99;100.00
19526;BME280;9907;42.676;26.348;2024-03-17T04:24:54;99286.44;;;6.01;100.00
19526;BME280;9907;42.676;26.348;2024-03-17T04:27:22;99290.88;;;6.01;100.00
19526;BME280;9907;42.676;26.348;2024-03-17T04:29:56;99291.28;;;5.95;100.00
19526;BME280;9907;42.676;26.348;2024-03-17T04:32:24;99297.16;;;5.85;100.00
19526;BME280;9907;42.676;26.348;2024-03-17T04:34:52;99295.53;;;5.70;100.00
19526;BME280;9907;42.676;26.348;2024-03-17T04:37:18;99296.09;;;5.75;100.00
19526;BME280;9907;42.676;26.348;2024-03-17T04:39:45;99300.97;;;5.81;100.00
19526;BME280;9907;42.676;26.348;2024-03-17T04:42:15;99310.03;;;5.92;100.00
19526;BME280;9907;42.676;26.348;2024-03-17T04:44:41;99298.28;;;5.96;100.00
19526;BME280;9907;42.676;26.348;2024-03-17T04:47:09;99310.38;;;5.73;100.00
19526;BME280;9907;42.676;26.348;2024-03-17T04:49:43;99318.16;;;5.76;100.00
19526;BME280;9907;42.676;26.348;2024-03-17T04:52:14;99313.16;;;5.84;100.00
19526;BME280;9907;42.676;26.348;2024-03-17T04:54:41;99306.56;;;5.77;100.00
19526;BME280;9907;42.676;26.348;2024-03-17T04:57:09;99309.97;;;5.79;100.00
19526;BME280;9907;42.676;26.348;2024-03-17T04:59:35;99320.88;;;5.74;100.00
19526;BME280;9907;42.676;26.348;2024-03-17T05:02:01;99315.16;;;5.80;100.00
19526;BME280;9907;42.676;26.348;2024-03-17T05:04:29;99317.03;;;5.93;100.00
19526;BME280;9907;42.676;26.348;2024-03-17T05:06:54;99315.25;;;5.93;100.00
19526;BME280;9907;42.676;26.348;2024-03-17T05:09:20;99317.19;;;6.04;100.00
19526;BME280;9907;42.676;26.348;2024-03-17T05:11:46;99313.38;;;6.08;100.00
19526;BME280;9907;42.676;26.348;2024-03-17T05:14:12;99312.97;;;6.14;100.00
19526;BME280;9907;42.676;26.348;2024-03-17T05:16:38;99304.47;;;6.21;100.00
19526;BME280;9907;42.676;26.348;2024-03-17T05:19:04;99301.88;;;6.34;100.00
19526;BME280;9907;42.676;26.348;2024-03-17T05:21:30;99308.88;;;6.85;100.00
19526;BME280;9907;42.676;26.348;2024-03-17T05:24:01;99305.53;;;7.20;100.00
19526;BME280;9907;42.676;26.348;2024-03-17T05:26:27;99301.31;;;7.41;100.00
19526;BME280;9907;42.676;26.348;2024-03-17T05:28:53;99295.97;;;7.77;100.00
19526;BME280;9907;42.676;26.348;2024-03-17T05:31:19;99294.53;;;7.84;100.00
19526;BME280;9907;42.676;26.348;2024-03-17T05:33:46;99291.97;;;8.07;100.00
19526;BME280;9907;42.676;26.348;2024-03-17T05:36:12;99294.44;;;8.21;100.00
19526;BME280;9907;42.676;26.348;2024-03-17T05:38:37;99304.22;;;8.44;100.00
19526;BME280;9907;42.676;26.348;2024-03-17T05:41:05;99303.16;;;8.69;100.00
19526;BME280;9907;42.676;26.348;2024-03-17T05:43:32;99306.00;;;9.01;100.00
19526;BME280;9907;42.676;26.348;2024-03-17T05:46:00;99312.63;;;9.17;100.00
19526;BME280;9907;42.676;26.348;2024-03-17T05:48:39;99301.97;;;9.28;100.00
19526;BME280;9907;42.676;26.348;2024-03-17T05:51:13;99306.69;;;9.14;99.67
19526;BME280;9907;42.676;26.348;2024-03-17T05:53:48;99309.09;;;9.39;98.67
19526;BME280;9907;42.676;26.348;2024-03-17T05:56:14;99309.88;;;9.73;95.02
19526;BME280;9907;42.676;26.348;2024-03-17T05:58:41;99318.44;;;9.45;94.38
19526;BME280;9907;42.676;26.348;2024-03-17T06:01:07;99316.50;;;9.13;98.08
19526;BME280;9907;42.676;26.348;2024-03-17T06:03:36;99318.72;;;9.08;97.86
19526;BME280;9907;42.676;26.348;2024-03-17T06:06:04;99324.28;;;9.05;98.44
19526;BME280;9907;42.676;26.348;2024-03-17T06:08:30;99327.06;;;9.26;95.72
19526;BME280;9907;42.676;26.348;2024-03-17T06:10:56;99326.91;;;9.50;93.23
19526;BME280;9907;42.676;26.348;2024-03-17T06:13:28;99330.84;;;9.77;90.52
19526;BME280;9907;42.676;26.348;2024-03-17T06:15:56;99338.25;;;9.74;89.24
19526;BME280;9907;42.676;26.348;2024-03-17T06:18:32;99338.91;;;9.44;88.52
19526;BME280;9907;42.676;26.348;2024-03-17T06:21:05;99341.34;;;9.47;90.95
19526;BME280;9907;42.676;26.348;2024-03-17T06:23:34;99331.00;;;10.08;86.75
19526;BME280;9907;42.676;26.348;2024-03-17T06:26:01;99339.25;;;10.16;86.32
19526;BME280;9907;42.676;26.348;2024-03-17T06:28:46;99346.31;;;9.95;91.90
19526;BME280;9907;42.676;26.348;2024-03-17T06:31:12;99348.72;;;9.98;94.03
19526;BME280;9907;42.676;26.348;2024-03-17T06:33:37;99348.69;;;10.20;91.97
19526;BME280;9907;42.676;26.348;2024-03-17T06:36:06;99347.22;;;10.68;91.55
19526;BME280;9907;42.676;26.348;2024-03-17T06:38:32;99349.38;;;10.95;88.00
19526;BME280;9907;42.676;26.348;2024-03-17T06:40:58;99357.69;;;11.22;85.73
19526;BME280;9907;42.676;26.348;2024-03-17T06:43:24;99351.31;;;11.14;85.57
19526;BME280;9907;42.676;26.348;2024-03-17T06:46:00;99360.91;;;11.56;85.12
19526;BME280;9907;42.676;26.348;2024-03-17T06:48:26;99354.47;;;11.68;82.20
19526;BME280;9907;42.676;26.348;2024-03-17T06:50:53;99356.88;;;11.71;81.84
19526;BME280;9907;42.676;26.348;2024-03-17T06:53:23;99360.91;;;11.96;80.54
19526;BME280;9907;42.676;26.348;2024-03-17T06:55:56;99351.50;;;12.40;79.24
19526;BME280;9907;42.676;26.348;2024-03-17T06:58:23;99356.75;;;11.73;80.15
19526;BME280;9907;42.676;26.348;2024-03-17T07:00:59;99353.44;;;12.00;79.43
19526;BME280;9907;42.676;26.348;2024-03-17T07:03:27;99359.03;;;11.78;78.94
19526;BME280;9907;42.676;26.348;2024-03-17T07:05:59;99356.41;;;12.06;78.27
19526;BME280;9907;42.676;26.348;2024-03-17T07:08:28;99358.81;;;12.29;77.58
19526;BME280;9907;42.676;26.348;2024-03-17T07:11:02;99357.53;;;12.04;76.89
19526;BME280;9907;42.676;26.348;2024-03-17T07:13:33;99356.84;;;12.11;76.88
19526;BME280;9907;42.676;26.348;2024-03-17T07:15:59;99355.03;;;12.41;75.36
19526;BME280;9907;42.676;26.348;2024-03-17T07:18:26;99350.78;;;12.57;75.40
19526;BME280;9907;42.676;26.348;2024-03-17T07:20:52;99349.75;;;12.68;74.29
19526;BME280;9907;42.676;26.348;2024-03-17T07:23:18;99357.66;;;12.89;73.71
19526;BME280;9907;42.676;26.348;2024-03-17T07:25:58;99356.69;;;12.61;73.01
19526;BME280;9907;42.676;26.348;2024-03-17T07:28:24;99353.41;;;12.86;74.36
19526;BME280;9907;42.676;26.348;2024-03-17T07:30:51;99351.00;;;12.93;73.67
19526;BME280;9907;42.676;26.348;2024-03-17T07:33:18;99345.91;;;12.90;73.34
19526;BME280;9907;42.676;26.348;2024-03-17T07:35:53;99346.50;;;13.40;72.71
19526;BME280;9907;42.676;26.348;2024-03-17T07:38:20;99349.59;;;13.45;73.14
19526;BME280;9907;42.676;26.348;2024-03-17T07:40:56;99348.09;;;13.60;71.11
19526;BME280;9907;42.676;26.348;2024-03-17T07:43:26;99348.69;;;13.54;70.70
19526;BME280;9907;42.676;26.348;2024-03-17T07:46:08;99344.25;;;13.45;70.84
19526;BME280;9907;42.676;26.348;2024-03-17T07:48:38;99340.44;;;13.65;72.84
19526;BME280;9907;42.676;26.348;2024-03-17T07:51:06;99341.22;;;13.75;71.34
19526;BME280;9907;42.676;26.348;2024-03-17T07:53:34;99341.72;;;13.88;70.24
19526;BME280;9907;42.676;26.348;2024-03-17T07:56:05;99344.66;;;13.95;68.17
19526;BME280;9907;42.676;26.348;2024-03-17T07:58:36;99345.28;;;13.61;70.09
19526;BME280;9907;42.676;26.348;2024-03-17T08:01:10;99333.66;;;13.71;69.34
19526;BME280;9907;42.676;26.348;2024-03-17T08:03:39;99336.53;;;14.04;68.37
19526;BME280;9907;42.676;26.348;2024-03-17T08:06:06;99342.28;;;13.92;69.64
19526;BME280;9907;42.676;26.348;2024-03-17T08:08:32;99333.47;;;14.17;68.53
19526;BME280;9907;42.676;26.348;2024-03-17T08:10:58;99332.25;;;14.11;67.56
19526;BME280;9907;42.676;26.348;2024-03-17T08:13:24;99338.38;;;14.04;68.12
19526;BME280;9907;42.676;26.348;2024-03-17T08:15:57;99329.94;;;14.70;68.02
19526;BME280;9907;42.676;26.348;2024-03-17T08:18:24;99333.47;;;14.52;66.55
19526;BME280;9907;42.676;26.348;2024-03-17T08:20:50;99333.72;;;14.41;68.67
19526;BME280;9907;42.676;26.348;2024-03-17T08:23:16;99329.41;;;14.13;67.86
19526;BME280;9907;42.676;26.348;2024-03-17T08:25:46;99330.88;;;13.62;70.31
19526;BME280;9907;42.676;26.348;2024-03-17T08:28:18;99328.38;;;13.05;69.99
19526;BME280;9907;42.676;26.348;2024-03-17T08:30:43;99324.69;;;13.25;70.88
19526;BME280;9907;42.676;26.348;2024-03-17T08:33:15;99315.34;;;13.56;69.35
19526;BME280;9907;42.676;26.348;2024-03-17T08:35:42;99317.06;;;13.30;70.11
19526;BME280;9907;42.676;26.348;2024-03-17T08:38:07;99315.53;;;13.18;71.26
19526;BME280;9907;42.676;26.348;2024-03-17T08:40:36;99305.09;;;13.15;71.04
19526;BME280;9907;42.676;26.348;2024-03-17T08:43:03;99304.72;;;13.37;70.53
19526;BME280;9907;42.676;26.348;2024-03-17T08:45:38;99307.59;;;13.26;70.04
19526;BME280;9907;42.676;26.348;2024-03-17T08:48:04;99305.19;;;13.23;70.11
19526;BME280;9907;42.676;26.348;2024-03-17T08:50:31;99297.56;;;13.55;69.92
19526;BME280;9907;42.676;26.348;2024-03-17T08:53:02;99300.44;;;13.17;71.54
19526;BME280;9907;42.676;26.348;2024-03-17T08:55:30;99286.25;;;13.97;70.61
19526;BME280;9907;42.676;26.348;2024-03-17T08:57:58;99292.88;;;14.38;68.46
19526;BME280;9907;42.676;26.348;2024-03-17T09:00:39;99295.53;;;14.20;68.90
19526;BME280;9907;42.676;26.348;2024-03-17T09:03:08;99285.25;;;14.15;69.05
19526;BME280;9907;42.676;26.348;2024-03-17T09:05:46;99294.47;;;14.13;68.67
19526;BME280;9907;42.676;26.348;2024-03-17T09:08:26;99285.34;;;14.85;67.93
19526;BME280;9907;42.676;26.348;2024-03-17T09:10:54;99280.75;;;15.03;64.91
19526;BME280;9907;42.676;26.348;2024-03-17T09:13:24;99285.53;;;14.91;64.41
19526;BME280;9907;42.676;26.348;2024-03-17T09:15:56;99288.97;;;14.14;66.00
19526;BME280;9907;42.676;26.348;2024-03-17T09:18:36;99277.09;;;14.86;66.85
19526;BME280;9907;42.676;26.348;2024-03-17T09:21:08;99268.16;;;15.11;67.13
19526;BME280;9907;42.676;26.348;2024-03-17T09:23:40;99271.81;;;15.36;65.91
19526;BME280;9907;42.676;26.348;2024-03-17T09:26:07;99266.28;;;15.46;66.60
19526;BME280;9907;42.676;26.348;2024-03-17T09:28:59;99265.44;;;15.45;65.77
19526;BME280;9907;42.676;26.348;2024-03-17T09:31:25;99257.66;;;15.68;66.74
19526;BME280;9907;42.676;26.348;2024-03-17T09:33:56;99262.00;;;15.61;65.38
19526;BME280;9907;42.676;26.348;2024-03-17T09:36:21;99261.25;;;15.09;66.62
19526;BME280;9907;42.676;26.348;2024-03-17T09:38:47;99261.81;;;14.87;67.12
19526;BME280;9907;42.676;26.348;2024-03-17T09:41:24;99255.25;;;14.81;67.11
19526;BME280;9907;42.676;26.348;2024-03-17T09:43:57;99258.19;;;14.70;67.20
19526;BME280;9907;42.676;26.348;2024-03-17T09:46:26;99256.91;;;14.82;67.50
19526;BME280;9907;42.676;26.348;2024-03-17T09:48:54;99248.28;;;14.71;66.99
19526;BME280;9907;42.676;26.348;2024-03-17T09:51:25;99259.97;;;14.61;67.66
19526;BME280;9907;42.676;26.348;2024-03-17T09:53:51;99256.75;;;14.58;67.01
19526;BME280;9907;42.676;26.348;2024-03-17T09:56:19;99248.25;;;14.27;67.80
19526;BME280;9907;42.676;26.348;2024-03-17T09:58:50;99247.88;;;14.22;68.29
19526;BME280;9907;42.676;26.348;2024-03-17T10:01:19;99242.34;;;14.24;67.97
19526;BME280;9907;42.676;26.348;2024-03-17T10:03:52;99257.84;;;14.47;67.06
19526;BME280;9907;42.676;26.348;2024-03-17T10:06:29;99244.25;;;14.49;67.31
19526;BME280;9907;42.676;26.348;2024-03-17T10:08:57;99247.56;;;13.90;68.31
19526;BME280;9907;42.676;26.348;2024-03-17T10:11:31;99254.28;;;14.03;67.75
19526;BME280;9907;42.676;26.348;2024-03-17T10:14:09;99250.41;;;14.41;67.14
19526;BME280;9907;42.676;26.348;2024-03-17T10:16:37;99254.91;;;14.58;67.46
19526;BME280;9907;42.676;26.348;2024-03-17T10:21:44;99245.53;;;14.63;64.31
19526;BME280;9907;42.676;26.348;2024-03-17T10:24:28;99240.25;;;14.79;64.13
19526;BME280;9907;42.676;26.348;2024-03-17T10:26:59;99246.25;;;14.98;65.65
19526;BME280;9907;42.676;26.348;2024-03-17T10:29:30;99242.00;;;14.88;63.94
19526;BME280;9907;42.676;26.348;2024-03-17T10:34:25;99233.56;;;15.17;62.91
19526;BME280;9907;42.676;26.348;2024-03-17T10:36:52;99229.25;;;15.32;63.72
19526;BME280;9907;42.676;26.348;2024-03-17T10:39:32;99233.97;;;15.30;60.84
19526;BME280;9907;42.676;26.348;2024-03-17T10:42:05;99229.69;;;15.11;61.80
19526;BME280;9907;42.676;26.348;2024-03-17T10:44:32;99223.25;;;15.12;62.26
19526;BME280;9907;42.676;26.348;2024-03-17T10:47:00;99218.91;;;15.11;61.69
19526;BME280;9907;42.676;26.348;2024-03-17T10:49:32;99214.06;;;15.15;60.51
19526;BME280;9907;42.676;26.348;2024-03-17T10:52:04;99213.69;;;15.51;61.11
19526;BME280;9907;42.676;26.348;2024-03-17T10:54:32;99211.66;;;15.11;61.34
19526;BME280;9907;42.676;26.348;2024-03-17T11:00:07;99208.22;;;14.59;61.18
19526;BME280;9907;42.676;26.348;2024-03-17T11:02:46;99218.25;;;14.83;62.50
19526;BME280;9907;42.676;26.348;2024-03-17T11:05:25;99206.75;;;14.99;61.69
19526;BME280;9907;42.676;26.348;2024-03-17T11:08:00;99209.53;;;14.81;61.94
19526;BME280;9907;42.676;26.348;2024-03-17T11:10:29;99192.59;;;14.89;61.87
19526;BME280;9907;42.676;26.348;2024-03-17T11:12:56;99200.22;;;14.76;61.48
19526;BME280;9907;42.676;26.348;2024-03-17T11:20:44;99186.22;;;15.48;60.98
19526;BME280;9907;42.676;26.348;2024-03-17T11:23:30;99174.56;;;15.31;60.19
19526;BME280;9907;42.676;26.348;2024-03-17T11:25:57;99178.69;;;15.51;60.13
19526;BME280;9907;42.676;26.348;2024-03-17T11:31:40;99174.44;;;15.41;61.64
19526;BME280;9907;42.676;26.348;2024-03-17T11:34:27;99174.63;;;14.97;64.44
19526;BME280;9907;42.676;26.348;2024-03-17T11:36:53;99168.28;;;15.06;63.97
19526;BME280;9907;42.676;26.348;2024-03-17T11:39:45;99161.31;;;14.88;63.73
19526;BME280;9907;42.676;26.348;2024-03-17T11:45:24;99148.69;;;15.46;61.74
19526;BME280;9907;42.676;26.348;2024-03-17T11:47:52;99150.03;;;15.42;61.35
19526;BME280;9907;42.676;26.348;2024-03-17T11:50:19;99149.09;;;15.51;62.16
19526;BME280;9907;42.676;26.348;2024-03-17T11:53:00;99141.84;;;15.52;60.91
19526;BME280;9907;42.676;26.348;2024-03-17T11:55:27;99144.31;;;15.45;62.28
19526;BME280;9907;42.676;26.348;2024-03-17T11:57:57;99142.59;;;15.20;62.51
19526;BME280;9907;42.676;26.348;2024-03-17T12:00:25;99143.91;;;15.16;61.05
19526;BME280;9907;42.676;26.348;2024-03-17T12:02:56;99133.97;;;15.08;61.02
19526;BME280;9907;42.676;26.348;2024-03-17T12:05:42;99143.84;;;15.50;61.18
19526;BME280;9907;42.676;26.348;2024-03-17T12:08:22;99135.16;;;15.88;60.78
19526;BME280;9907;42.676;26.348;2024-03-17T12:10:48;99136.97;;;16.20;60.74
19526;BME280;9907;42.676;26.348;2024-03-17T12:13:15;99134.75;;;16.32;59.64
19526;BME280;9907;42.676;26.348;2024-03-17T12:15:46;99133.41;;;15.47;58.27
19526;BME280;9907;42.676;26.348;2024-03-17T12:18:27;99129.31;;;15.27;59.89
19526;BME280;9907;42.676;26.348;2024-03-17T12:20:57;99120.75;;;15.39;61.75
19526;BME280;9907;42.676;26.348;2024-03-17T12:23:26;99121.84;;;15.63;61.23
19526;BME280;9907;42.676;26.348;2024-03-17T12:25:52;99108.69;;;15.68;60.05
19526;BME280;9907;42.676;26.348;2024-03-17T12:28:21;99112.75;;;15.72;60.63
19526;BME280;9907;42.676;26.348;2024-03-17T12:30:48;99096.25;;;15.58;61.08
19526;BME280;9907;42.676;26.348;2024-03-17T12:33:15;99104.34;;;15.67;61.43
19526;BME280;9907;42.676;26.348;2024-03-17T12:35:46;99097.94;;;15.76;59.54
19526;BME280;9907;42.676;26.348;2024-03-17T12:38:33;99101.81;;;15.73;59.38
19526;BME280;9907;42.676;26.348;2024-03-17T12:41:02;99095.41;;;15.58;58.74
19526;BME280;9907;42.676;26.348;2024-03-17T12:46:39;99091.00;;;15.97;58.05
19526;BME280;9907;42.676;26.348;2024-03-17T12:49:05;99086.25;;;16.16;57.83
19526;BME280;9907;42.676;26.348;2024-03-17T12:51:33;99097.03;;;16.24;56.48
19526;BME280;9907;42.676;26.348;2024-03-17T12:57:30;99082.13;;;15.81;56.78
19526;BME280;9907;42.676;26.348;2024-03-17T13:00:17;99082.28;;;15.63;56.89
19526;BME280;9907;42.676;26.348;2024-03-17T13:03:05;99081.78;;;15.84;57.61
19526;BME280;9907;42.676;26.348;2024-03-17T13:05:36;99079.06;;;16.00;58.15
19526;BME280;9907;42.676;26.348;2024-03-17T13:08:18;99072.31;;;16.04;57.22
19526;BME280;9907;42.676;26.348;2024-03-17T13:11:23;99069.88;;;16.33;56.60
19526;BME280;9907;42.676;26.348;2024-03-17T13:13:56;99071.16;;;16.06;56.44
19526;BME280;9907;42.676;26.348;2024-03-17T13:16:29;99061.16;;;16.23;57.53
19526;BME280;9907;42.676;26.348;2024-03-17T13:18:55;99060.38;;;16.06;57.61
19526;BME280;9907;42.676;26.348;2024-03-17T13:21:21;99071.16;;;16.06;57.88
19526;BME280;9907;42.676;26.348;2024-03-17T13:23:47;99064.13;;;15.81;58.77
19526;BME280;9907;42.676;26.348;2024-03-17T13:26:16;99062.22;;;15.90;58.45
19526;BME280;9907;42.676;26.348;2024-03-17T13:28:45;99065.28;;;15.79;59.63
19526;BME280;9907;42.676;26.348;2024-03-17T13:31:11;99066.81;;;15.81;60.31
19526;BME280;9907;42.676;26.348;2024-03-17T13:33:43;99065.44;;;15.61;60.19
19526;BME280;9907;42.676;26.348;2024-03-17T13:36:11;99062.91;;;15.76;60.62
19526;BME280;9907;42.676;26.348;2024-03-17T13:39:00;99063.06;;;15.82;60.41
19526;BME280;9907;42.676;26.348;2024-03-17T13:41:26;99059.06;;;15.70;60.23